Time;durP1;ratioP1;P1;durP2;ratioP2;P2;SDS_P1;SDS_P2;PMS_P1;PMS_P2;Temp;Humidity;BMP_temperature;BMP_pressure;BME280_temperature;BME280_humidity;BME280_pressure;Samples;Min_cycle;Max_cycle;Signal;HPM_P1;HPM_P2
2023/08/15 00:00:20;;;;;;;27.60;24.80;;;;;;;-128.00;-1.00;-1.00;105827;1252;1004182;-77
2023/08/15 00:03:07;;;;;;;28.90;26.00;;;;;;;-128.00;-1.00;-1.00;105757;1252;1059509;-77
2023/08/15 00:05:36;;;;;;;29.70;26.10;;;;;;;-128.00;-1.00;-1.00;105759;1253;1005228;-77
2023/08/15 00:08:03;;;;;;;27.80;25.10;;;;;;;-128.00;-1.00;-1.00;105795;1252;1047658;-77
2023/08/15 00:10:29;;;;;;;26.60;23.80;;;;;;;-128.00;-1.00;-1.00;105837;1252;1004089;-76
2023/08/15 00:12:56;;;;;;;28.20;25.40;;;;;;;-128.00;-1.00;-1.00;105785;1253;1005136;-76
2023/08/15 00:15:22;;;;;;;27.60;24.60;;;;;;;-128.00;-1.00;-1.00;105511;1252;1004383;-77
2023/08/15 00:17:49;;;;;;;27.10;24.40;;;;;;;-128.00;-1.00;-1.00;105744;1253;1003911;-77
2023/08/15 00:20:16;;;;;;;28.00;24.50;;;;;;;-128.00;-1.00;-1.00;105811;1251;1004156;-77
2023/08/15 00:22:42;;;;;;;27.10;24.40;;;;;;;-128.00;-1.00;-1.00;105726;1254;1004352;-77
2023/08/15 00:25:09;;;;;;;28.40;25.40;;;;;;;-128.00;-1.00;-1.00;105728;1253;1006647;-77
2023/08/15 00:27:35;;;;;;;28.30;25.50;;;;;;;-128.00;-1.00;-1.00;105786;1252;1004438;-77
2023/08/15 00:30:02;;;;;;;27.40;24.80;;;;;;;-128.00;-1.00;-1.00;105762;1253;1004352;-76
2023/08/15 00:32:35;;;;;;;27.00;24.40;;;;;;;-128.00;-1.00;-1.00;105802;1252;1003709;-76
2023/08/15 00:35:05;;;;;;;27.70;24.80;;;;;;;-128.00;-1.00;-1.00;105810;1252;1061162;-76
2023/08/15 00:37:32;;;;;;;27.50;24.80;;;;;;;-128.00;-1.00;-1.00;105717;1253;1056622;-77
2023/08/15 00:40:00;;;;;;;25.50;22.90;;;;;;;-128.00;-1.00;-1.00;105779;1253;1004314;-77
2023/08/15 00:42:26;;;;;;;30.90;24.90;;;;;;;-128.00;-1.00;-1.00;105769;1251;1003985;-76
2023/08/15 00:44:53;;;;;;;26.80;24.00;;;;;;;-128.00;-1.00;-1.00;105660;1252;1004985;-77
2023/08/15 00:47:21;;;;;;;27.60;24.70;;;;;;;-128.00;-1.00;-1.00;105732;1252;1005447;-77
2023/08/15 00:49:47;;;;;;;27.20;24.40;;;;;;;-128.00;-1.00;-1.00;105777;1253;1003466;-78
2023/08/15 00:52:15;;;;;;;26.40;23.80;;;;;;;-128.00;-1.00;-1.00;105653;1253;1004474;-76
2023/08/15 00:54:45;;;;;;;28.30;25.20;;;;;;;-128.00;-1.00;-1.00;105619;1252;1003639;-77
2023/08/15 00:57:12;;;;;;;;;;;;;;;-128.00;-1.00;-1.00;105807;1252;1046667;-76
2023/08/15 00:59:44;;;;;;;27.00;24.30;;;;;;;-128.00;-1.00;-1.00;105519;1252;1004159;-77
2023/08/15 01:02:11;;;;;;;27.30;24.50;;;;;;;-128.00;-1.00;-1.00;105631;1252;1056718;-76
2023/08/15 01:04:40;;;;;;;28.80;25.70;;;;;;;-128.00;-1.00;-1.00;105671;1252;1004507;-76
2023/08/15 01:07:06;;;;;;;28.60;25.50;;;;;;;-128.00;-1.00;-1.00;105739;1254;1046542;-76
2023/08/15 01:09:33;;;;;;;25.90;23.30;;;;;;;-128.00;-1.00;-1.00;105759;1251;1005251;-76
2023/08/15 01:12:21;;;;;;;26.70;23.90;;;;;;;-128.00;-1.00;-1.00;105781;1252;1003509;-77
2023/08/15 01:15:12;;;;;;;26.30;23.70;;;;;;;-128.00;-1.00;-1.00;105747;1252;1055874;-77
2023/08/15 01:17:51;;;;;;;25.40;22.50;;;;;;;-128.00;-1.00;-1.00;105740;1252;1059767;-77
2023/08/15 01:20:35;;;;;;;28.00;23.90;;;;;;;-128.00;-1.00;-1.00;105652;1253;1046452;-77
2023/08/15 01:23:06;;;;;;;24.70;22.20;;;;;;;-128.00;-1.00;-1.00;105765;1252;1047750;-76
2023/08/15 01:25:40;;;;;;;27.80;23.40;;;;;;;-128.00;-1.00;-1.00;105764;1252;1061644;-77
2023/08/15 01:28:14;;;;;;;25.70;23.10;;;;;;;-128.00;-1.00;-1.00;105730;1252;1056528;-76
2023/08/15 01:30:46;;;;;;;24.40;21.80;;;;;;;-128.00;-1.00;-1.00;105563;1254;1058743;-76
2023/08/15 01:33:22;;;;;;;24.80;22.10;;;;;;;-128.00;-1.00;-1.00;105598;1254;1046204;-76
2023/08/15 01:35:58;;;;;;;23.90;21.60;;;;;;;-128.00;-1.00;-1.00;105742;1252;1048306;-77
2023/08/15 01:38:46;;;;;;;24.80;22.30;;;;;;;-128.00;-1.00;-1.00;105731;1253;1061143;-78
2023/08/15 01:41:18;;;;;;;27.20;24.50;;;;;;;-128.00;-1.00;-1.00;105717;1252;1055434;-78
2023/08/15 01:43:45;;;;;;;26.30;23.60;;;;;;;-128.00;-1.00;-1.00;105781;1252;1061331;-77
2023/08/15 01:46:12;;;;;;;26.10;23.50;;;;;;;-128.00;-1.00;-1.00;105693;1253;1004124;-77
2023/08/15 01:48:40;;;;;;;26.20;23.50;;;;;;;-128.00;-1.00;-1.00;105719;1252;1004736;-77
2023/08/15 01:51:08;;;;;;;25.10;22.60;;;;;;;-128.00;-1.00;-1.00;105784;1252;1005104;-76
2023/08/15 01:53:35;;;;;;;24.40;22.10;;;;;;;-128.00;-1.00;-1.00;105780;1254;1004349;-76
2023/08/15 01:56:02;;;;;;;24.80;22.30;;;;;;;-128.00;-1.00;-1.00;105704;1253;1005138;-76
2023/08/15 01:58:29;;;;;;;25.30;22.80;;;;;;;-128.00;-1.00;-1.00;105792;1252;1004060;-76
2023/08/15 02:00:55;;;;;;;26.30;23.30;;;;;;;-128.00;-1.00;-1.00;105794;1253;1004327;-77
2023/08/15 02:03:22;;;;;;;25.50;22.80;;;;;;;-128.00;-1.00;-1.00;105759;1252;1004782;-77
2023/08/15 02:05:48;;;;;;;27.90;24.50;;;;;;;-128.00;-1.00;-1.00;105758;1252;1005097;-77
2023/08/15 02:08:16;;;;;;;28.30;24.20;;;;;;;-128.00;-1.00;-1.00;105726;1252;1004320;-77
2023/08/15 02:10:42;;;;;;;24.20;21.70;;;;;;;-128.00;-1.00;-1.00;105729;1252;1004873;-77
2023/08/15 02:13:09;;;;;;;27.60;24.70;;;;;;;-128.00;-1.00;-1.00;105728;1253;1004780;-76
2023/08/15 02:15:36;;;;;;;25.20;22.70;;;;;;;-128.00;-1.00;-1.00;105763;1252;1005316;-77
2023/08/15 02:18:02;;;;;;;26.20;23.60;;;;;;;-128.00;-1.00;-1.00;105788;1253;1004143;-77
2023/08/15 02:20:29;;;;;;;28.60;25.80;;;;;;;-128.00;-1.00;-1.00;105780;1252;1004312;-77
2023/08/15 02:22:56;;;;;;;27.30;24.90;;;;;;;-128.00;-1.00;-1.00;105725;1253;1003983;-77
2023/08/15 02:25:22;;;;;;;28.60;25.80;;;;;;;-128.00;-1.00;-1.00;105691;1253;1004567;-76
2023/08/15 02:27:49;;;;;;;41.60;37.60;;;;;;;-128.00;-1.00;-1.00;105607;1252;1004369;-78
2023/08/15 02:30:15;;;;;;;33.50;30.20;;;;;;;-128.00;-1.00;-1.00;105776;1252;1004218;-75
2023/08/15 02:32:42;;;;;;;29.70;26.80;;;;;;;-128.00;-1.00;-1.00;105702;1252;1003795;-76
2023/08/15 02:35:09;;;;;;;27.60;24.90;;;;;;;-128.00;-1.00;-1.00;105723;1252;1004875;-76
2023/08/15 02:37:35;;;;;;;30.70;27.80;;;;;;;-128.00;-1.00;-1.00;105820;1254;1004010;-76
2023/08/15 02:40:05;;;;;;;31.20;27.90;;;;;;;-128.00;-1.00;-1.00;105793;1252;1004215;-75
2023/08/15 02:42:32;;;;;;;28.30;25.70;;;;;;;-128.00;-1.00;-1.00;105657;1253;1057002;-76
2023/08/15 02:44:59;;;;;;;31.40;26.10;;;;;;;-128.00;-1.00;-1.00;105766;1252;1004961;-74
2023/08/15 02:47:26;;;;;;;28.40;25.50;;;;;;;-128.00;-1.00;-1.00;105825;1252;1004853;-81
2023/08/15 02:49:53;;;;;;;27.70;25.00;;;;;;;-128.00;-1.00;-1.00;105832;1253;1006368;-82
2023/08/15 02:52:19;;;;;;;27.10;24.40;;;;;;;-128.00;-1.00;-1.00;105869;1254;1003835;-82
2023/08/15 02:54:46;;;;;;;26.70;24.20;;;;;;;-128.00;-1.00;-1.00;105662;1252;1004130;-82
2023/08/15 02:57:12;;;;;;;27.70;24.50;;;;;;;-128.00;-1.00;-1.00;105861;1254;1005040;-82
2023/08/15 02:59:39;;;;;;;25.40;23.00;;;;;;;-128.00;-1.00;-1.00;105593;1252;1004311;-81
2023/08/15 03:02:05;;;;;;;24.90;22.40;;;;;;;-128.00;-1.00;-1.00;105867;1253;1003849;-81
2023/08/15 03:04:32;;;;;;;26.60;24.10;;;;;;;-128.00;-1.00;-1.00;105864;1252;1003978;-81
2023/08/15 03:06:58;;;;;;;25.50;23.00;;;;;;;-128.00;-1.00;-1.00;105842;1253;1005452;-80
2023/08/15 03:09:25;;;;;;;25.80;23.20;;;;;;;-128.00;-1.00;-1.00;105843;1252;1005220;-77
2023/08/15 03:11:51;;;;;;;26.00;23.20;;;;;;;-128.00;-1.00;-1.00;105749;1253;1004608;-69
2023/08/15 03:14:18;;;;;;;27.80;23.70;;;;;;;-128.00;-1.00;-1.00;105817;1253;1003495;-68
2023/08/15 03:16:45;;;;;;;26.90;24.30;;;;;;;-128.00;-1.00;-1.00;105782;1252;1003119;-69
2023/08/15 03:19:12;;;;;;;24.20;21.80;;;;;;;-128.00;-1.00;-1.00;105780;1252;1004754;-69
2023/08/15 03:21:38;;;;;;;25.50;22.90;;;;;;;-128.00;-1.00;-1.00;105726;1253;1005970;-69
2023/08/15 03:24:05;;;;;;;25.10;22.70;;;;;;;-128.00;-1.00;-1.00;105784;1252;1004578;-69
2023/08/15 03:26:32;;;;;;;24.10;21.90;;;;;;;-128.00;-1.00;-1.00;105828;1252;1003651;-70
2023/08/15 03:28:58;;;;;;;26.80;24.10;;;;;;;-128.00;-1.00;-1.00;105816;1253;1003409;-69
2023/08/15 03:31:25;;;;;;;25.90;23.40;;;;;;;-128.00;-1.00;-1.00;105575;1253;1004315;-69
2023/08/15 03:33:51;;;;;;;24.40;21.90;;;;;;;-128.00;-1.00;-1.00;105760;1253;1006105;-69
2023/08/15 03:36:18;;;;;;;26.50;23.70;;;;;;;-128.00;-1.00;-1.00;105786;1252;1004876;-69
2023/08/15 03:38:45;;;;;;;24.30;21.80;;;;;;;-128.00;-1.00;-1.00;105847;1253;1004512;-72
2023/08/15 03:41:12;;;;;;;25.00;22.70;;;;;;;-128.00;-1.00;-1.00;105798;1253;1004097;-72
2023/08/15 03:43:38;;;;;;;25.40;23.10;;;;;;;-128.00;-1.00;-1.00;105768;1253;1004442;-72
2023/08/15 03:46:06;;;;;;;25.10;22.40;;;;;;;-128.00;-1.00;-1.00;105753;1253;1003671;-71
2023/08/15 03:48:33;;;;;;;23.70;21.30;;;;;;;-128.00;-1.00;-1.00;105711;1253;1006752;-72
2023/08/15 03:51:00;;;;;;;23.90;21.50;;;;;;;-128.00;-1.00;-1.00;105783;1254;1004704;-72
2023/08/15 03:53:27;;;;;;;27.20;24.40;;;;;;;-128.00;-1.00;-1.00;105795;1253;1003818;-72
2023/08/15 03:55:54;;;;;;;24.60;22.20;;;;;;;-128.00;-1.00;-1.00;105779;1253;1003709;-72
2023/08/15 03:58:22;;;;;;;23.80;21.30;;;;;;;-128.00;-1.00;-1.00;105759;1253;1004719;-72
2023/08/15 04:00:49;;;;;;;23.70;21.60;;;;;;;-128.00;-1.00;-1.00;105734;1252;1004845;-72
2023/08/15 04:03:16;;;;;;;21.50;19.50;;;;;;;-128.00;-1.00;-1.00;105760;1253;1004346;-72
2023/08/15 04:05:44;;;;;;;22.80;20.70;;;;;;;-128.00;-1.00;-1.00;105773;1252;1004327;-71
2023/08/15 04:08:11;;;;;;;20.90;18.90;;;;;;;-128.00;-1.00;-1.00;105782;1253;1004875;-71
2023/08/15 04:10:41;;;;;;;20.20;18.40;;;;;;;-128.00;-1.00;-1.00;105792;1253;1004659;-71
2023/08/15 04:13:09;;;;;;;20.40;18.50;;;;;;;-128.00;-1.00;-1.00;105758;1252;1046465;-72
2023/08/15 04:15:36;;;;;;;18.20;16.60;;;;;;;-128.00;-1.00;-1.00;105803;1253;1004656;-72
2023/08/15 04:18:08;;;;;;;17.80;16.10;;;;;;;-128.00;-1.00;-1.00;105659;1252;1006004;-72
2023/08/15 04:20:38;;;;;;;16.70;15.20;;;;;;;-128.00;-1.00;-1.00;105746;1254;1056336;-72
2023/08/15 04:23:06;;;;;;;15.60;14.20;;;;;;;-128.00;-1.00;-1.00;105475;1252;1059709;-72
2023/08/15 04:25:39;;;;;;;16.70;15.20;;;;;;;-128.00;-1.00;-1.00;105480;1254;1005171;-72
2023/08/15 04:28:05;;;;;;;16.20;14.70;;;;;;;-128.00;-1.00;-1.00;105713;1253;1046484;-72
2023/08/15 04:30:33;;;;;;;15.50;14.10;;;;;;;-128.00;-1.00;-1.00;105773;1253;1004180;-72
2023/08/15 04:33:00;;;;;;;15.20;13.90;;;;;;;-128.00;-1.00;-1.00;105757;1252;1005292;-73
2023/08/15 04:35:27;;;;;;;16.50;15.10;;;;;;;-128.00;-1.00;-1.00;105807;1252;1003792;-73
2023/08/15 04:37:54;;;;;;;15.70;14.10;;;;;;;-128.00;-1.00;-1.00;105733;1252;1003753;-72
2023/08/15 04:40:33;;;;;;;13.90;12.70;;;;;;;-128.00;-1.00;-1.00;105614;1252;1004811;-72
2023/08/15 04:43:00;;;;;;;;;;;;;;;-128.00;-1.00;-1.00;105805;1253;1061796;-73
2023/08/15 04:45:27;;;;;;;15.00;13.70;;;;;;;-128.00;-1.00;-1.00;105726;1253;1005631;-73
2023/08/15 04:47:54;;;;;;;14.40;13.00;;;;;;;-128.00;-1.00;-1.00;105718;1253;1003941;-72
2023/08/15 04:50:20;;;;;;;13.60;12.40;;;;;;;-128.00;-1.00;-1.00;105729;1252;1004211;-73
2023/08/15 04:52:47;;;;;;;13.90;12.70;;;;;;;-128.00;-1.00;-1.00;105640;1252;1004800;-73
2023/08/15 04:55:14;;;;;;;13.60;12.30;;;;;;;-128.00;-1.00;-1.00;105703;1253;1005624;-73
2023/08/15 04:57:41;;;;;;;12.70;11.50;;;;;;;-128.00;-1.00;-1.00;105756;1254;1004068;-73
2023/08/15 05:00:09;;;;;;;12.30;11.10;;;;;;;-128.00;-1.00;-1.00;105694;1254;1004200;-71
2023/08/15 05:02:35;;;;;;;12.70;11.50;;;;;;;-128.00;-1.00;-1.00;105698;1251;1004037;-69
2023/08/15 05:05:09;;;;;;;12.00;11.00;;;;;;;-128.00;-1.00;-1.00;105557;1253;1004822;-70
2023/08/15 05:07:36;;;;;;;11.80;10.70;;;;;;;-128.00;-1.00;-1.00;105739;1252;1061329;-70
2023/08/15 05:10:03;;;;;;;11.10;10.00;;;;;;;-128.00;-1.00;-1.00;105743;1254;1004833;-70
2023/08/15 05:12:29;;;;;;;11.90;10.90;;;;;;;-128.00;-1.00;-1.00;105690;1254;1005344;-70
2023/08/15 05:14:56;;;;;;;12.10;10.90;;;;;;;-128.00;-1.00;-1.00;105713;1255;1003479;-70
2023/08/15 05:17:22;;;;;;;11.90;10.70;;;;;;;-128.00;-1.00;-1.00;105715;1254;1006665;-70
2023/08/15 05:19:49;;;;;;;11.90;10.90;;;;;;;-128.00;-1.00;-1.00;105765;1254;1003785;-69
2023/08/15 05:22:16;;;;;;;11.90;10.60;;;;;;;-128.00;-1.00;-1.00;105782;1251;1003988;-70
2023/08/15 05:24:42;;;;;;;11.00;10.00;;;;;;;-128.00;-1.00;-1.00;105799;1251;1005009;-70
2023/08/15 05:27:12;;;;;;;9.90;9.00;;;;;;;-128.00;-1.00;-1.00;105866;1251;1004058;-70
2023/08/15 05:29:41;;;;;;;10.10;9.10;;;;;;;-128.00;-1.00;-1.00;105781;1251;1047743;-69
2023/08/15 05:32:08;;;;;;;10.60;9.10;;;;;;;-128.00;-1.00;-1.00;105827;1251;1060461;-70
2023/08/15 05:34:35;;;;;;;10.10;8.40;;;;;;;-128.00;-1.00;-1.00;105695;1251;1004002;-70
2023/08/15 05:37:01;;;;;;;10.50;9.00;;;;;;;-128.00;-1.00;-1.00;105791;1251;1004173;-70
2023/08/15 05:39:28;;;;;;;10.10;9.20;;;;;;;-128.00;-1.00;-1.00;105777;1251;1004884;-70
2023/08/15 05:41:54;;;;;;;9.80;8.90;;;;;;;-128.00;-1.00;-1.00;105823;1251;1003582;-70
2023/08/15 05:44:21;;;;;;;9.00;8.30;;;;;;;-128.00;-1.00;-1.00;105811;1252;1004262;-69
2023/08/15 05:46:47;;;;;;;9.80;8.90;;;;;;;-128.00;-1.00;-1.00;105758;1251;1005660;-72
2023/08/15 05:49:14;;;;;;;9.90;8.90;;;;;;;-128.00;-1.00;-1.00;105820;1251;1004977;-70
2023/08/15 05:51:40;;;;;;;9.50;8.50;;;;;;;-128.00;-1.00;-1.00;105792;1251;1004182;-70
2023/08/15 05:54:07;;;;;;;9.70;8.80;;;;;;;-128.00;-1.00;-1.00;105834;1251;1004202;-70
2023/08/15 05:56:33;;;;;;;8.30;7.60;;;;;;;-128.00;-1.00;-1.00;105796;1251;1005541;-70
2023/08/15 05:59:00;;;;;;;9.80;8.20;;;;;;;-128.00;-1.00;-1.00;105831;1251;1005244;-70
2023/08/15 06:01:26;;;;;;;10.20;7.80;;;;;;;-128.00;-1.00;-1.00;105789;1251;1004411;-70
2023/08/15 06:03:53;;;;;;;8.50;7.80;;;;;;;-128.00;-1.00;-1.00;105807;1251;1004427;-70
2023/08/15 06:06:21;;;;;;;9.00;8.10;;;;;;;-128.00;-1.00;-1.00;105878;1251;1004234;-71
2023/08/15 06:08:48;;;;;;;9.00;8.20;;;;;;;-128.00;-1.00;-1.00;105805;1251;1061844;-71
2023/08/15 06:11:15;;;;;;;8.00;7.30;;;;;;;-128.00;-1.00;-1.00;105806;1253;1004001;-71
2023/08/15 06:13:41;;;;;;;8.60;7.10;;;;;;;-128.00;-1.00;-1.00;105798;1251;1005209;-71
2023/08/15 06:16:08;;;;;;;8.30;7.30;;;;;;;-128.00;-1.00;-1.00;105865;1251;1003872;-71
2023/08/15 06:18:34;;;;;;;8.20;7.40;;;;;;;-128.00;-1.00;-1.00;105858;1251;1004554;-71
2023/08/15 06:21:01;;;;;;;7.10;6.40;;;;;;;-128.00;-1.00;-1.00;105827;1251;1004171;-71
2023/08/15 06:23:28;;;;;;;7.50;6.70;;;;;;;-128.00;-1.00;-1.00;105878;1251;1004235;-71
2023/08/15 06:25:54;;;;;;;7.90;6.90;;;;;;;-128.00;-1.00;-1.00;105812;1251;1004101;-70
2023/08/15 06:28:21;;;;;;;7.60;6.90;;;;;;;-128.00;-1.00;-1.00;105838;1251;1004449;-71
2023/08/15 06:30:47;;;;;;;7.70;7.00;;;;;;;-128.00;-1.00;-1.00;105845;1251;1003594;-71
2023/08/15 06:33:14;;;;;;;8.20;7.00;;;;;;;-128.00;-1.00;-1.00;105866;1254;1004720;-71
2023/08/15 06:35:41;;;;;;;7.10;6.50;;;;;;;-128.00;-1.00;-1.00;105779;1251;1004008;-71
2023/08/15 06:38:07;;;;;;;7.20;6.50;;;;;;;-128.00;-1.00;-1.00;105809;1251;1003992;-71
2023/08/15 06:40:34;;;;;;;7.60;6.90;;;;;;;-128.00;-1.00;-1.00;105827;1251;1004878;-71
2023/08/15 06:43:00;;;;;;;9.20;6.90;;;;;;;-128.00;-1.00;-1.00;105827;1251;1003822;-70
2023/08/15 06:45:27;;;;;;;7.70;7.00;;;;;;;-128.00;-1.00;-1.00;105860;1251;1004719;-70
2023/08/15 06:47:53;;;;;;;7.30;6.70;;;;;;;-128.00;-1.00;-1.00;105858;1251;1005033;-70
2023/08/15 06:50:20;;;;;;;7.50;6.50;;;;;;;-128.00;-1.00;-1.00;105795;1251;1004936;-71
2023/08/15 06:52:47;;;;;;;7.30;6.70;;;;;;;-128.00;-1.00;-1.00;105836;1251;1004881;-71
2023/08/15 06:55:14;;;;;;;7.20;6.50;;;;;;;-128.00;-1.00;-1.00;105749;1251;1004283;-72
2023/08/15 06:57:41;;;;;;;7.20;6.60;;;;;;;-128.00;-1.00;-1.00;105669;1251;1004207;-72
2023/08/15 07:00:11;;;;;;;7.00;6.10;;;;;;;-128.00;-1.00;-1.00;105834;1251;1004857;-72
2023/08/15 07:02:39;;;;;;;8.80;7.20;;;;;;;-128.00;-1.00;-1.00;105785;1255;1058440;-72
2023/08/15 07:05:07;;;;;;;8.60;7.00;;;;;;;-128.00;-1.00;-1.00;105750;1251;1005592;-72
2023/08/15 07:07:34;;;;;;;6.80;6.10;;;;;;;-128.00;-1.00;-1.00;105833;1251;1004005;-73
2023/08/15 07:10:00;;;;;;;7.60;6.80;;;;;;;-128.00;-1.00;-1.00;105856;1251;1004258;-72
2023/08/15 07:12:27;;;;;;;7.30;6.60;;;;;;;-128.00;-1.00;-1.00;105828;1251;1004622;-72
2023/08/15 07:14:53;;;;;;;6.50;6.00;;;;;;;-128.00;-1.00;-1.00;105796;1251;1004897;-72
2023/08/15 07:17:20;;;;;;;7.10;6.50;;;;;;;-128.00;-1.00;-1.00;105844;1251;1005020;-72
2023/08/15 07:19:47;;;;;;;7.90;7.10;;;;;;;-128.00;-1.00;-1.00;105837;1251;1004768;-72
2023/08/15 07:22:13;;;;;;;6.70;6.00;;;;;;;-128.00;-1.00;-1.00;105818;1250;1004009;-72
2023/08/15 07:24:40;;;;;;;7.10;6.30;;;;;;;-128.00;-1.00;-1.00;105842;1251;1005408;-71
2023/08/15 07:27:07;;;;;;;7.20;6.10;;;;;;;-128.00;-1.00;-1.00;105837;1251;1003606;-72
2023/08/15 07:29:33;;;;;;;6.50;5.70;;;;;;;-128.00;-1.00;-1.00;105816;1251;1004052;-72
2023/08/15 07:32:02;;;;;;;7.00;6.40;;;;;;;-128.00;-1.00;-1.00;105822;1251;1004362;-72
2023/08/15 07:34:28;;;;;;;7.60;6.30;;;;;;;-128.00;-1.00;-1.00;105837;1251;1060769;-72
2023/08/15 07:36:55;;;;;;;7.20;6.60;;;;;;;-128.00;-1.00;-1.00;105812;1251;1004407;-72
2023/08/15 07:39:21;;;;;;;6.60;6.10;;;;;;;-128.00;-1.00;-1.00;105633;1251;1004667;-72
2023/08/15 07:41:48;;;;;;;7.60;6.30;;;;;;;-128.00;-1.00;-1.00;105858;1251;1004726;-72
2023/08/15 07:44:15;;;;;;;6.60;6.10;;;;;;;-128.00;-1.00;-1.00;105841;1251;1005605;-71
2023/08/15 07:46:41;;;;;;;5.90;5.30;;;;;;;-128.00;-1.00;-1.00;105875;1251;1004506;-72
2023/08/15 07:49:08;;;;;;;5.80;5.30;;;;;;;-128.00;-1.00;-1.00;105849;1251;1004290;-72
2023/08/15 07:51:34;;;;;;;5.80;5.40;;;;;;;-128.00;-1.00;-1.00;105820;1251;1004414;-71
2023/08/15 07:54:01;;;;;;;6.80;6.20;;;;;;;-128.00;-1.00;-1.00;105823;1251;1004361;-71
2023/08/15 07:56:30;;;;;;;6.10;5.60;;;;;;;-128.00;-1.00;-1.00;105883;1251;1004539;-72
2023/08/15 07:58:56;;;;;;;5.40;5.00;;;;;;;-128.00;-1.00;-1.00;105843;1251;1062511;-72
2023/08/15 08:01:23;;;;;;;4.70;4.30;;;;;;;-128.00;-1.00;-1.00;105860;1251;1004083;-72
2023/08/15 08:03:49;;;;;;;6.80;4.30;;;;;;;-128.00;-1.00;-1.00;105854;1251;1005049;-72
2023/08/15 08:06:16;;;;;;;4.80;4.20;;;;;;;-128.00;-1.00;-1.00;105840;1251;1006237;-72
2023/08/15 08:08:42;;;;;;;4.80;3.90;;;;;;;-128.00;-1.00;-1.00;105854;1251;1004783;-72
2023/08/15 08:11:09;;;;;;;8.70;4.40;;;;;;;-128.00;-1.00;-1.00;105862;1250;1004346;-71
2023/08/15 08:13:35;;;;;;;4.30;3.70;;;;;;;-128.00;-1.00;-1.00;105869;1251;1004247;-71
2023/08/15 08:16:02;;;;;;;5.10;4.00;;;;;;;-128.00;-1.00;-1.00;105842;1251;1003801;-72
2023/08/15 08:18:29;;;;;;;4.00;3.70;;;;;;;-128.00;-1.00;-1.00;105804;1251;1004842;-71
2023/08/15 08:20:56;;;;;;;3.60;3.40;;;;;;;-128.00;-1.00;-1.00;105886;1251;1004490;-72
2023/08/15 08:23:24;;;;;;;3.80;3.30;;;;;;;-128.00;-1.00;-1.00;105884;1251;1004965;-72
2023/08/15 08:25:51;;;;;;;3.80;3.40;;;;;;;-128.00;-1.00;-1.00;105793;1251;1004017;-72
2023/08/15 08:28:18;;;;;;;3.20;2.80;;;;;;;-128.00;-1.00;-1.00;105879;1251;1004154;-71
2023/08/15 08:30:44;;;;;;;3.70;3.20;;;;;;;-128.00;-1.00;-1.00;105805;1251;1003732;-72
2023/08/15 08:33:13;;;;;;;3.30;3.10;;;;;;;-128.00;-1.00;-1.00;105897;1251;1004489;-72
2023/08/15 08:35:39;;;;;;;3.20;2.90;;;;;;;-128.00;-1.00;-1.00;105800;1251;1004137;-72
2023/08/15 08:38:06;;;;;;;3.70;3.00;;;;;;;-128.00;-1.00;-1.00;105842;1251;1004508;-73
2023/08/15 08:40:32;;;;;;;5.60;3.30;;;;;;;-128.00;-1.00;-1.00;105833;1251;1004351;-72
2023/08/15 08:42:59;;;;;;;4.00;3.50;;;;;;;-128.00;-1.00;-1.00;105812;1251;1006691;-72
2023/08/15 08:45:29;;;;;;;3.60;3.40;;;;;;;-128.00;-1.00;-1.00;105911;1251;1004063;-72
2023/08/15 08:47:56;;;;;;;4.80;3.40;;;;;;;-128.00;-1.00;-1.00;105832;1250;1061857;-72
2023/08/15 08:50:23;;;;;;;3.40;3.00;;;;;;;-128.00;-1.00;-1.00;105930;1250;1004246;-80
2023/08/15 08:52:50;;;;;;;3.90;3.50;;;;;;;-128.00;-1.00;-1.00;105828;1251;1003928;-80
2023/08/15 08:55:19;;;;;;;3.60;3.40;;;;;;;-128.00;-1.00;-1.00;105769;1251;1004439;-80
2023/08/15 08:57:50;;;;;;;3.50;3.10;;;;;;;-128.00;-1.00;-1.00;105885;1251;1049143;-78
2023/08/15 09:00:22;;;;;;;3.30;3.00;;;;;;;-128.00;-1.00;-1.00;105859;1250;1061617;-80
2023/08/15 09:02:49;;;;;;;4.10;3.40;;;;;;;-128.00;-1.00;-1.00;105737;1251;1056461;-80
2023/08/15 09:05:16;;;;;;;3.40;2.70;;;;;;;-128.00;-1.00;-1.00;105935;1251;1004774;-80
2023/08/15 09:07:43;;;;;;;3.90;3.50;;;;;;;-128.00;-1.00;-1.00;105751;1253;1003504;-80
2023/08/15 09:10:09;;;;;;;6.80;3.00;;;;;;;-128.00;-1.00;-1.00;105894;1251;1004416;-79
2023/08/15 09:12:38;;;;;;;4.30;3.00;;;;;;;-128.00;-1.00;-1.00;105904;1251;1004197;-79
2023/08/15 09:15:07;;;;;;;2.50;2.30;;;;;;;-128.00;-1.00;-1.00;105862;1250;1054136;-79
2023/08/15 09:17:34;;;;;;;3.10;2.70;;;;;;;-128.00;-1.00;-1.00;105819;1251;1059312;-80
2023/08/15 09:20:14;;;;;;;3.60;2.50;;;;;;;-128.00;-1.00;-1.00;105788;1251;1003453;-79
2023/08/15 09:22:46;;;;;;;3.10;2.50;;;;;;;-128.00;-1.00;-1.00;105841;1251;1047529;-79
2023/08/15 09:25:23;;;;;;;3.40;2.80;;;;;;;-128.00;-1.00;-1.00;105798;1251;1060931;-79
2023/08/15 09:27:50;;;;;;;5.20;2.80;;;;;;;-128.00;-1.00;-1.00;105890;1250;1056047;-78
2023/08/15 09:30:17;;;;;;;5.00;2.40;;;;;;;-128.00;-1.00;-1.00;105818;1251;1003981;-80
2023/08/15 09:32:46;;;;;;;2.60;2.40;;;;;;;-128.00;-1.00;-1.00;105590;1254;1004235;-80
2023/08/15 09:35:18;;;;;;;3.30;2.40;;;;;;;-128.00;-1.00;-1.00;105699;1254;1046588;-80
2023/08/15 09:37:47;;;;;;;4.70;2.10;;;;;;;-128.00;-1.00;-1.00;105821;1253;1060830;-73
2023/08/15 09:40:20;;;;;;;3.20;2.90;;;;;;;-128.00;-1.00;-1.00;105746;1253;1055147;-71
2023/08/15 09:42:47;;;;;;;3.30;2.80;;;;;;;-128.00;-1.00;-1.00;105721;1253;1059741;-72
2023/08/15 09:45:15;;;;;;;3.40;2.90;;;;;;;-128.00;-1.00;-1.00;105693;1252;1004233;-71
2023/08/15 09:47:43;;;;;;;3.50;2.90;;;;;;;-128.00;-1.00;-1.00;105765;1253;1006079;-69
2023/08/15 09:50:11;;;;;;;2.70;2.40;;;;;;;-128.00;-1.00;-1.00;105737;1252;1004214;-71
2023/08/15 09:52:46;;;;;;;3.10;2.80;;;;;;;-128.00;-1.00;-1.00;105580;1253;1056505;-71
2023/08/15 09:55:15;;;;;;;3.70;3.00;;;;;;;-128.00;-1.00;-1.00;105703;1253;1058621;-70
2023/08/15 09:57:43;;;;;;;3.10;2.60;;;;;;;-128.00;-1.00;-1.00;105759;1252;1044805;-71
2023/08/15 10:00:12;;;;;;;3.60;3.10;;;;;;;-128.00;-1.00;-1.00;105581;1254;1003382;-75
2023/08/15 10:02:59;;;;;;;3.50;2.70;;;;;;;-128.00;-1.00;-1.00;105736;1251;1061438;-75
2023/08/15 10:05:31;;;;;;;3.00;2.50;;;;;;;-128.00;-1.00;-1.00;105692;1251;1055287;-75
2023/08/15 10:07:58;;;;;;;2.90;2.70;;;;;;;-128.00;-1.00;-1.00;105588;1251;1059733;-76
2023/08/15 10:10:30;;;;;;;4.30;2.80;;;;;;;-128.00;-1.00;-1.00;105888;1251;1004388;-82
2023/08/15 10:12:58;;;;;;;4.20;2.60;;;;;;;-128.00;-1.00;-1.00;105851;1251;1047627;-81
2023/08/15 10:15:27;;;;;;;2.40;2.20;;;;;;;-128.00;-1.00;-1.00;105788;1251;1004361;-78
2023/08/15 10:17:55;;;;;;;2.80;2.30;;;;;;;-128.00;-1.00;-1.00;105871;1251;1055541;-76
2023/08/15 10:20:22;;;;;;;3.70;2.80;;;;;;;-128.00;-1.00;-1.00;105738;1251;1004047;-76
2023/08/15 10:22:51;;;;;;;3.00;2.30;;;;;;;-128.00;-1.00;-1.00;105848;1251;1004470;-76
2023/08/15 10:25:23;;;;;;;5.70;2.80;;;;;;;-128.00;-1.00;-1.00;105824;1251;1047243;-73
2023/08/15 10:27:53;;;;;;;3.30;2.90;;;;;;;-128.00;-1.00;-1.00;105850;1251;1060806;-73
2023/08/15 10:30:30;;;;;;;;;;;;;;;-128.00;-1.00;-1.00;105865;1250;1055529;-74
2023/08/15 10:33:21;;;;;;;2.60;2.10;;;;;;;-128.00;-1.00;-1.00;105868;1251;1059375;-74
2023/08/15 10:35:51;;;;;;;2.40;2.20;;;;;;;-128.00;-1.00;-1.00;105794;1251;1044212;-73
2023/08/15 10:38:25;;;;;;;3.60;2.10;;;;;;;-128.00;-1.00;-1.00;105842;1251;1046612;-73
2023/08/15 10:41:00;;;;;;;3.00;2.10;;;;;;;-128.00;-1.00;-1.00;105860;1251;1060946;-73
2023/08/15 10:43:28;;;;;;;3.40;2.30;;;;;;;-128.00;-1.00;-1.00;105848;1251;1055408;-73
2023/08/15 10:45:59;;;;;;;2.50;2.20;;;;;;;-128.00;-1.00;-1.00;105772;1251;1004441;-76
2023/08/15 10:48:48;;;;;;;3.60;2.40;;;;;;;-128.00;-1.00;-1.00;105819;1251;1045498;-71
2023/08/15 10:51:36;;;;;;;3.80;2.40;;;;;;;-128.00;-1.00;-1.00;105787;1251;1047662;-74
2023/08/15 10:54:04;;;;;;;4.50;2.40;;;;;;;-128.00;-1.00;-1.00;105877;1251;1061342;-76
2023/08/15 10:56:38;;;;;;;2.60;2.40;;;;;;;-128.00;-1.00;-1.00;105810;1251;1004043;-77
2023/08/15 10:59:07;;;;;;;2.60;2.40;;;;;;;-128.00;-1.00;-1.00;105816;1251;1059323;-76
2023/08/15 11:01:34;;;;;;;;;;;;;;;-128.00;-1.00;-1.00;105822;1251;1043999;-76
2023/08/15 11:04:02;;;;;;;4.30;2.70;;;;;;;-128.00;-1.00;-1.00;105818;1251;1003912;-76
2023/08/15 11:06:30;;;;;;;3.60;2.40;;;;;;;-128.00;-1.00;-1.00;105876;1251;1004623;-76
2023/08/15 11:08:58;;;;;;;3.80;2.60;;;;;;;-128.00;-1.00;-1.00;105559;1251;1056803;-77
2023/08/15 11:11:25;;;;;;;2.40;2.20;;;;;;;-128.00;-1.00;-1.00;105830;1251;1003643;-77
2023/08/15 11:13:53;;;;;;;2.40;2.20;;;;;;;-128.00;-1.00;-1.00;105815;1251;1004599;-77